sensor_id;sensor_type;location;lat;lon;timestamp;temperature;humidity
7502;DHT22;3792;47.740;7.606;2022-08-07T00:00:51;18.30;99.90
7502;DHT22;3792;47.740;7.606;2022-08-07T00:03:19;18.20;99.90
7502;DHT22;3792;47.740;7.606;2022-08-07T00:05:47;18.20;99.90
7502;DHT22;3792;47.740;7.606;2022-08-07T00:08:15;18.10;99.90
7502;DHT22;3792;47.740;7.606;2022-08-07T00:10:42;18.20;99.90
7502;DHT22;3792;47.740;7.606;2022-08-07T00:13:09;18.10;99.90
7502;DHT22;3792;47.740;7.606;2022-08-07T00:15:36;18.00;99.90
7502;DHT22;3792;47.740;7.606;2022-08-07T00:18:04;17.90;99.90
7502;DHT22;3792;47.740;7.606;2022-08-07T00:20:35;18.00;99.90
7502;DHT22;3792;47.740;7.606;2022-08-07T00:23:03;18.00;99.90
7502;DHT22;3792;47.740;7.606;2022-08-07T00:25:31;18.00;99.90
7502;DHT22;3792;47.740;7.606;2022-08-07T00:27:59;18.00;99.90
7502;DHT22;3792;47.740;7.606;2022-08-07T00:30:26;18.00;99.90
7502;DHT22;3792;47.740;7.606;2022-08-07T00:32:54;17.90;99.90
7502;DHT22;3792;47.740;7.606;2022-08-07T00:35:21;17.80;99.90
7502;DHT22;3792;47.740;7.606;2022-08-07T00:37:50;17.80;99.90
7502;DHT22;3792;47.740;7.606;2022-08-07T00:40:17;17.70;99.90
7502;DHT22;3792;47.740;7.606;2022-08-07T00:42:44;17.60;99.90
7502;DHT22;3792;47.740;7.606;2022-08-07T00:45:11;17.40;99.90
7502;DHT22;3792;47.740;7.606;2022-08-07T00:47:39;17.40;99.90
7502;DHT22;3792;47.740;7.606;2022-08-07T00:50:07;17.50;99.90
7502;DHT22;3792;47.740;7.606;2022-08-07T00:52:34;17.50;99.90
7502;DHT22;3792;47.740;7.606;2022-08-07T00:55:03;17.50;99.90
7502;DHT22;3792;47.740;7.606;2022-08-07T00:57:31;17.40;99.90
7502;DHT22;3792;47.740;7.606;2022-08-07T00:59:59;17.50;99.90
7502;DHT22;3792;47.740;7.606;2022-08-07T01:02:26;17.40;99.90
7502;DHT22;3792;47.740;7.606;2022-08-07T01:04:53;17.30;99.90
7502;DHT22;3792;47.740;7.606;2022-08-07T01:07:21;17.30;99.90
7502;DHT22;3792;47.740;7.606;2022-08-07T01:09:48;17.20;99.90
7502;DHT22;3792;47.740;7.606;2022-08-07T01:12:17;17.20;99.90
7502;DHT22;3792;47.740;7.606;2022-08-07T01:14:45;17.10;99.90
7502;DHT22;3792;47.740;7.606;2022-08-07T01:17:12;17.00;99.90
7502;DHT22;3792;47.740;7.606;2022-08-07T01:19:40;17.00;99.90
7502;DHT22;3792;47.740;7.606;2022-08-07T01:22:10;17.10;99.90
7502;DHT22;3792;47.740;7.606;2022-08-07T01:24:37;17.10;99.90
7502;DHT22;3792;47.740;7.606;2022-08-07T01:27:05;17.10;99.90
7502;DHT22;3792;47.740;7.606;2022-08-07T01:29:32;17.00;99.90
7502;DHT22;3792;47.740;7.606;2022-08-07T01:31:59;17.00;99.90
7502;DHT22;3792;47.740;7.606;2022-08-07T01:34:29;16.90;99.90
7502;DHT22;3792;47.740;7.606;2022-08-07T01:36:57;16.80;99.90
7502;DHT22;3792;47.740;7.606;2022-08-07T01:39:26;16.80;99.90
7502;DHT22;3792;47.740;7.606;2022-08-07T01:41:53;16.80;99.90
7502;DHT22;3792;47.740;7.606;2022-08-07T01:44:21;16.90;99.90
7502;DHT22;3792;47.740;7.606;2022-08-07T01:46:48;16.90;99.90
7502;DHT22;3792;47.740;7.606;2022-08-07T01:49:15;16.70;99.90
7502;DHT22;3792;47.740;7.606;2022-08-07T01:51:43;16.70;99.90
7502;DHT22;3792;47.740;7.606;2022-08-07T01:54:13;16.70;99.90
7502;DHT22;3792;47.740;7.606;2022-08-07T01:56:48;16.70;99.90
7502;DHT22;3792;47.740;7.606;2022-08-07T01:59:21;16.80;99.90
7502;DHT22;3792;47.740;7.606;2022-08-07T02:01:55;16.80;99.90
7502;DHT22;3792;47.740;7.606;2022-08-07T02:04:25;16.60;99.90
7502;DHT22;3792;47.740;7.606;2022-08-07T02:06:56;16.50;99.90
7502;DHT22;3792;47.740;7.606;2022-08-07T02:09:26;16.50;99.90
7502;DHT22;3792;47.740;7.606;2022-08-07T02:11:56;16.50;99.90
7502;DHT22;3792;47.740;7.606;2022-08-07T02:14:25;16.50;99.90
7502;DHT22;3792;47.740;7.606;2022-08-07T02:16:54;16.50;99.90
7502;DHT22;3792;47.740;7.606;2022-08-07T02:19:22;16.50;99.90
7502;DHT22;3792;47.740;7.606;2022-08-07T02:21:51;16.50;99.90
7502;DHT22;3792;47.740;7.606;2022-08-07T02:24:19;16.50;99.90
7502;DHT22;3792;47.740;7.606;2022-08-07T02:26:46;16.40;99.90
7502;DHT22;3792;47.740;7.606;2022-08-07T02:29:16;16.40;99.90
7502;DHT22;3792;47.740;7.606;2022-08-07T02:31:44;16.40;99.90
7502;DHT22;3792;47.740;7.606;2022-08-07T02:34:12;16.30;99.90
7502;DHT22;3792;47.740;7.606;2022-08-07T02:36:40;16.30;99.90
7502;DHT22;3792;47.740;7.606;2022-08-07T02:39:08;16.20;99.90
7502;DHT22;3792;47.740;7.606;2022-08-07T02:41:36;16.20;99.90
7502;DHT22;3792;47.740;7.606;2022-08-07T02:44:04;16.10;99.90
7502;DHT22;3792;47.740;7.606;2022-08-07T02:46:33;16.10;99.90
7502;DHT22;3792;47.740;7.606;2022-08-07T02:49:02;16.10;99.90
7502;DHT22;3792;47.740;7.606;2022-08-07T02:51:32;16.10;99.90
7502;DHT22;3792;47.740;7.606;2022-08-07T02:54:02;16.10;99.90
7502;DHT22;3792;47.740;7.606;2022-08-07T02:56:31;16.10;99.90
7502;DHT22;3792;47.740;7.606;2022-08-07T02:59:01;16.00;99.90
7502;DHT22;3792;47.740;7.606;2022-08-07T03:01:32;15.90;99.90
7502;DHT22;3792;47.740;7.606;2022-08-07T03:04:00;16.00;99.90
7502;DHT22;3792;47.740;7.606;2022-08-07T03:06:28;15.90;99.90
7502;DHT22;3792;47.740;7.606;2022-08-07T03:08:56;15.80;99.90
7502;DHT22;3792;47.740;7.606;2022-08-07T03:11:24;15.80;99.90
7502;DHT22;3792;47.740;7.606;2022-08-07T03:13:51;15.80;99.90
7502;DHT22;3792;47.740;7.606;2022-08-07T03:16:19;15.80;99.90
7502;DHT22;3792;47.740;7.606;2022-08-07T03:18:48;15.80;99.90
7502;DHT22;3792;47.740;7.606;2022-08-07T03:21:15;15.90;99.90
7502;DHT22;3792;47.740;7.606;2022-08-07T03:23:44;15.90;99.90
7502;DHT22;3792;47.740;7.606;2022-08-07T03:26:13;15.90;99.90
7502;DHT22;3792;47.740;7.606;2022-08-07T03:28:44;16.00;99.90
7502;DHT22;3792;47.740;7.606;2022-08-07T03:31:12;16.00;99.90
7502;DHT22;3792;47.740;7.606;2022-08-07T03:33:46;16.00;99.90
7502;DHT22;3792;47.740;7.606;2022-08-07T03:36:16;16.00;99.90
7502;DHT22;3792;47.740;7.606;2022-08-07T03:38:47;15.90;99.90
7502;DHT22;3792;47.740;7.606;2022-08-07T03:41:15;15.80;99.90
7502;DHT22;3792;47.740;7.606;2022-08-07T03:43:42;15.70;99.90
7502;DHT22;3792;47.740;7.606;2022-08-07T03:46:11;15.70;99.90
7502;DHT22;3792;47.740;7.606;2022-08-07T03:48:39;15.80;99.90
7502;DHT22;3792;47.740;7.606;2022-08-07T03:51:07;15.70;99.90
7502;DHT22;3792;47.740;7.606;2022-08-07T03:53:36;15.70;99.90
7502;DHT22;3792;47.740;7.606;2022-08-07T03:56:04;15.60;99.90
7502;DHT22;3792;47.740;7.606;2022-08-07T03:58:32;15.60;99.90
7502;DHT22;3792;47.740;7.606;2022-08-07T04:01:00;15.50;99.90
7502;DHT22;3792;47.740;7.606;2022-08-07T04:03:29;15.50;99.90
7502;DHT22;3792;47.740;7.606;2022-08-07T04:05:56;15.60;99.90
7502;DHT22;3792;47.740;7.606;2022-08-07T04:08:23;15.60;99.90
7502;DHT22;3792;47.740;7.606;2022-08-07T04:10:52;15.40;99.90
7502;DHT22;3792;47.740;7.606;2022-08-07T04:13:21;15.50;99.90
7502;DHT22;3792;47.740;7.606;2022-08-07T04:15:48;15.40;99.90
7502;DHT22;3792;47.740;7.606;2022-08-07T04:18:16;15.40;99.90
7502;DHT22;3792;47.740;7.606;2022-08-07T04:20:43;15.50;99.90
7502;DHT22;3792;47.740;7.606;2022-08-07T04:23:11;15.40;99.90
7502;DHT22;3792;47.740;7.606;2022-08-07T04:25:40;15.40;99.90
7502;DHT22;3792;47.740;7.606;2022-08-07T04:28:09;15.40;99.90
7502;DHT22;3792;47.740;7.606;2022-08-07T04:30:37;15.40;99.90
7502;DHT22;3792;47.740;7.606;2022-08-07T04:33:06;15.40;99.90
7502;DHT22;3792;47.740;7.606;2022-08-07T04:35:33;15.40;99.90
7502;DHT22;3792;47.740;7.606;2022-08-07T04:38:04;15.40;99.90
7502;DHT22;3792;47.740;7.606;2022-08-07T04:40:32;15.40;99.90
7502;DHT22;3792;47.740;7.606;2022-08-07T04:42:59;15.50;99.90
7502;DHT22;3792;47.740;7.606;2022-08-07T04:45:35;15.50;99.90
7502;DHT22;3792;47.740;7.606;2022-08-07T04:48:07;15.50;99.90
7502;DHT22;3792;47.740;7.606;2022-08-07T04:50:38;15.40;99.90
7502;DHT22;3792;47.740;7.606;2022-08-07T04:53:11;15.50;99.90
7502;DHT22;3792;47.740;7.606;2022-08-07T04:55:45;15.50;99.90
7502;DHT22;3792;47.740;7.606;2022-08-07T04:58:21;15.60;99.90
7502;DHT22;3792;47.740;7.606;2022-08-07T05:00:54;15.70;99.90
7502;DHT22;3792;47.740;7.606;2022-08-07T05:03:28;15.70;99.90
7502;DHT22;3792;47.740;7.606;2022-08-07T05:06:02;15.70;99.90
7502;DHT22;3792;47.740;7.606;2022-08-07T05:08:39;15.70;99.90
7502;DHT22;3792;47.740;7.606;2022-08-07T05:11:11;15.80;99.90
7502;DHT22;3792;47.740;7.606;2022-08-07T05:13:44;15.90;99.90
7502;DHT22;3792;47.740;7.606;2022-08-07T05:16:16;15.90;99.90
7502;DHT22;3792;47.740;7.606;2022-08-07T05:18:47;16.00;99.90
7502;DHT22;3792;47.740;7.606;2022-08-07T05:21:16;16.10;99.90
7502;DHT22;3792;47.740;7.606;2022-08-07T05:23:48;16.10;99.90
7502;DHT22;3792;47.740;7.606;2022-08-07T05:26:18;16.20;99.90
7502;DHT22;3792;47.740;7.606;2022-08-07T05:28:48;16.30;99.90
7502;DHT22;3792;47.740;7.606;2022-08-07T05:31:19;16.30;99.90
7502;DHT22;3792;47.740;7.606;2022-08-07T05:33:48;16.10;99.90
7502;DHT22;3792;47.740;7.606;2022-08-07T05:36:17;15.70;99.90
7502;DHT22;3792;47.740;7.606;2022-08-07T05:38:46;15.60;99.90
7502;DHT22;3792;47.740;7.606;2022-08-07T05:41:13;15.70;99.90
7502;DHT22;3792;47.740;7.606;2022-08-07T05:43:42;15.90;99.90
7502;DHT22;3792;47.740;7.606;2022-08-07T05:46:11;15.90;99.90
7502;DHT22;3792;47.740;7.606;2022-08-07T05:48:40;16.00;99.90
7502;DHT22;3792;47.740;7.606;2022-08-07T05:51:08;16.10;99.90
7502;DHT22;3792;47.740;7.606;2022-08-07T05:53:36;16.30;99.90
7502;DHT22;3792;47.740;7.606;2022-08-07T05:56:03;16.50;99.90
7502;DHT22;3792;47.740;7.606;2022-08-07T05:58:32;16.60;99.90
7502;DHT22;3792;47.740;7.606;2022-08-07T06:01:02;16.60;99.90
7502;DHT22;3792;47.740;7.606;2022-08-07T06:03:30;16.70;99.90
7502;DHT22;3792;47.740;7.606;2022-08-07T06:06:00;16.80;99.90
7502;DHT22;3792;47.740;7.606;2022-08-07T06:08:28;16.80;99.90
7502;DHT22;3792;47.740;7.606;2022-08-07T06:10:55;16.80;99.90
7502;DHT22;3792;47.740;7.606;2022-08-07T06:13:22;16.90;99.90
7502;DHT22;3792;47.740;7.606;2022-08-07T06:15:50;16.90;99.90
7502;DHT22;3792;47.740;7.606;2022-08-07T06:18:18;17.00;99.90
7502;DHT22;3792;47.740;7.606;2022-08-07T06:20:46;17.00;99.90
7502;DHT22;3792;47.740;7.606;2022-08-07T06:23:15;17.10;99.90
7502;DHT22;3792;47.740;7.606;2022-08-07T06:25:42;17.30;99.90
7502;DHT22;3792;47.740;7.606;2022-08-07T06:28:10;17.40;99.90
7502;DHT22;3792;47.740;7.606;2022-08-07T06:30:38;17.50;99.90
7502;DHT22;3792;47.740;7.606;2022-08-07T06:33:06;17.60;99.90
7502;DHT22;3792;47.740;7.606;2022-08-07T06:35:34;17.70;99.90
7502;DHT22;3792;47.740;7.606;2022-08-07T06:38:02;17.90;99.90
7502;DHT22;3792;47.740;7.606;2022-08-07T06:40:35;18.10;99.90
7502;DHT22;3792;47.740;7.606;2022-08-07T06:43:05;18.30;99.90
7502;DHT22;3792;47.740;7.606;2022-08-07T06:45:33;18.50;99.90
7502;DHT22;3792;47.740;7.606;2022-08-07T06:48:01;18.60;99.90
7502;DHT22;3792;47.740;7.606;2022-08-07T06:50:32;18.60;99.90
7502;DHT22;3792;47.740;7.606;2022-08-07T06:53:00;18.80;99.90
7502;DHT22;3792;47.740;7.606;2022-08-07T06:55:31;18.80;99.90
7502;DHT22;3792;47.740;7.606;2022-08-07T06:58:05;19.00;99.90
7502;DHT22;3792;47.740;7.606;2022-08-07T07:00:36;18.90;99.80
7502;DHT22;3792;47.740;7.606;2022-08-07T07:03:04;19.10;99.50
7502;DHT22;3792;47.740;7.606;2022-08-07T07:05:32;19.20;99.20
7502;DHT22;3792;47.740;7.606;2022-08-07T07:07:59;19.20;98.60
7502;DHT22;3792;47.740;7.606;2022-08-07T07:10:27;19.20;98.20
7502;DHT22;3792;47.740;7.606;2022-08-07T07:12:59;19.20;98.40
7502;DHT22;3792;47.740;7.606;2022-08-07T07:15:29;19.30;98.00
7502;DHT22;3792;47.740;7.606;2022-08-07T07:18:01;19.20;98.10
7502;DHT22;3792;47.740;7.606;2022-08-07T07:20:33;19.30;97.90
7502;DHT22;3792;47.740;7.606;2022-08-07T07:23:02;19.50;98.40
7502;DHT22;3792;47.740;7.606;2022-08-07T07:25:30;19.70;97.80
7502;DHT22;3792;47.740;7.606;2022-08-07T07:28:04;19.80;97.80
7502;DHT22;3792;47.740;7.606;2022-08-07T07:30:39;20.10;97.90
7502;DHT22;3792;47.740;7.606;2022-08-07T07:33:09;20.20;96.50
7502;DHT22;3792;47.740;7.606;2022-08-07T07:35:36;20.30;96.20
7502;DHT22;3792;47.740;7.606;2022-08-07T07:38:06;20.30;95.90
7502;DHT22;3792;47.740;7.606;2022-08-07T07:40:35;20.10;95.80
7502;DHT22;3792;47.740;7.606;2022-08-07T07:43:05;20.00;95.80
7502;DHT22;3792;47.740;7.606;2022-08-07T07:45:32;20.00;96.10
7502;DHT22;3792;47.740;7.606;2022-08-07T07:48:00;20.10;95.90
7502;DHT22;3792;47.740;7.606;2022-08-07T07:50:29;20.20;95.90
7502;DHT22;3792;47.740;7.606;2022-08-07T07:52:58;20.30;95.80
7502;DHT22;3792;47.740;7.606;2022-08-07T07:55:26;20.30;95.70
7502;DHT22;3792;47.740;7.606;2022-08-07T07:57:56;20.30;95.50
7502;DHT22;3792;47.740;7.606;2022-08-07T08:00:26;20.50;95.60
7502;DHT22;3792;47.740;7.606;2022-08-07T08:02:57;20.70;95.60
7502;DHT22;3792;47.740;7.606;2022-08-07T08:05:25;20.80;95.30
7502;DHT22;3792;47.740;7.606;2022-08-07T08:07:52;20.80;95.30
7502;DHT22;3792;47.740;7.606;2022-08-07T08:10:20;20.80;95.10
7502;DHT22;3792;47.740;7.606;2022-08-07T08:12:48;20.90;95.40
7502;DHT22;3792;47.740;7.606;2022-08-07T08:15:16;21.10;96.30
7502;DHT22;3792;47.740;7.606;2022-08-07T08:17:45;21.30;95.40
7502;DHT22;3792;47.740;7.606;2022-08-07T08:20:14;21.40;94.90
7502;DHT22;3792;47.740;7.606;2022-08-07T08:22:44;21.60;95.50
7502;DHT22;3792;47.740;7.606;2022-08-07T08:25:32;21.50;94.60
7502;DHT22;3792;47.740;7.606;2022-08-07T08:28:20;21.50;94.70
7502;DHT22;3792;47.740;7.606;2022-08-07T08:30:49;21.40;94.60
7502;DHT22;3792;47.740;7.606;2022-08-07T08:33:21;21.30;94.50
7502;DHT22;3792;47.740;7.606;2022-08-07T08:35:51;21.40;95.00
7502;DHT22;3792;47.740;7.606;2022-08-07T08:38:24;21.60;95.40
7502;DHT22;3792;47.740;7.606;2022-08-07T08:40:57;21.80;95.00
7502;DHT22;3792;47.740;7.606;2022-08-07T08:43:32;21.90;94.70
7502;DHT22;3792;47.740;7.606;2022-08-07T08:46:05;22.00;94.90
7502;DHT22;3792;47.740;7.606;2022-08-07T08:48:42;22.10;94.50
7502;DHT22;3792;47.740;7.606;2022-08-07T08:51:16;22.10;94.30
7502;DHT22;3792;47.740;7.606;2022-08-07T08:53:51;22.20;94.30
7502;DHT22;3792;47.740;7.606;2022-08-07T08:56:23;22.20;94.50
7502;DHT22;3792;47.740;7.606;2022-08-07T08:58:55;22.30;94.80
7502;DHT22;3792;47.740;7.606;2022-08-07T09:01:33;22.30;94.20
7502;DHT22;3792;47.740;7.606;2022-08-07T09:04:09;22.40;94.10
7502;DHT22;3792;47.740;7.606;2022-08-07T09:06:47;22.30;94.80
7502;DHT22;3792;47.740;7.606;2022-08-07T09:09:34;22.50;95.00
7502;DHT22;3792;47.740;7.606;2022-08-07T09:12:13;22.60;95.40
7502;DHT22;3792;47.740;7.606;2022-08-07T09:14:51;22.80;95.60
7502;DHT22;3792;47.740;7.606;2022-08-07T09:17:30;23.00;94.90
7502;DHT22;3792;47.740;7.606;2022-08-07T09:20:08;23.10;93.70
7502;DHT22;3792;47.740;7.606;2022-08-07T09:22:44;23.20;94.20
7502;DHT22;3792;47.740;7.606;2022-08-07T09:25:20;23.30;93.90
7502;DHT22;3792;47.740;7.606;2022-08-07T09:27:56;23.50;93.60
7502;DHT22;3792;47.740;7.606;2022-08-07T09:30:32;23.60;93.80
7502;DHT22;3792;47.740;7.606;2022-08-07T09:33:14;23.70;93.80
7502;DHT22;3792;47.740;7.606;2022-08-07T09:35:53;23.90;93.90
7502;DHT22;3792;47.740;7.606;2022-08-07T09:38:27;24.00;93.30
7502;DHT22;3792;47.740;7.606;2022-08-07T09:41:05;24.10;92.80
7502;DHT22;3792;47.740;7.606;2022-08-07T09:43:45;24.00;92.50
7502;DHT22;3792;47.740;7.606;2022-08-07T09:46:27;24.10;92.70
7502;DHT22;3792;47.740;7.606;2022-08-07T09:49:05;24.20;92.60
7502;DHT22;3792;47.740;7.606;2022-08-07T09:51:46;24.20;92.60
7502;DHT22;3792;47.740;7.606;2022-08-07T09:54:20;24.20;92.80
7502;DHT22;3792;47.740;7.606;2022-08-07T09:57:10;24.10;92.70
7502;DHT22;3792;47.740;7.606;2022-08-07T10:00:02;24.10;92.80
7502;DHT22;3792;47.740;7.606;2022-08-07T10:03:08;24.20;92.80
7502;DHT22;3792;47.740;7.606;2022-08-07T10:06:02;24.30;92.70
7502;DHT22;3792;47.740;7.606;2022-08-07T10:11:58;24.80;92.20
7502;DHT22;3792;47.740;7.606;2022-08-07T10:14:53;24.80;92.20
7502;DHT22;3792;47.740;7.606;2022-08-07T10:17:41;24.90;92.10
7502;DHT22;3792;47.740;7.606;2022-08-07T10:20:20;25.00;91.80
7502;DHT22;3792;47.740;7.606;2022-08-07T10:23:06;25.10;92.50
7502;DHT22;3792;47.740;7.606;2022-08-07T10:25:48;25.30;92.00
7502;DHT22;3792;47.740;7.606;2022-08-07T10:28:53;25.40;91.90
7502;DHT22;3792;47.740;7.606;2022-08-07T10:31:37;25.50;91.30
7502;DHT22;3792;47.740;7.606;2022-08-07T10:34:18;25.60;91.10
7502;DHT22;3792;47.740;7.606;2022-08-07T10:37:05;25.50;91.20
7502;DHT22;3792;47.740;7.606;2022-08-07T10:39:46;25.50;91.00
7502;DHT22;3792;47.740;7.606;2022-08-07T10:42:27;25.50;90.90
7502;DHT22;3792;47.740;7.606;2022-08-07T10:45:03;25.70;91.70
7502;DHT22;3792;47.740;7.606;2022-08-07T10:47:39;25.80;91.40
7502;DHT22;3792;47.740;7.606;2022-08-07T10:50:11;25.90;91.20
7502;DHT22;3792;47.740;7.606;2022-08-07T10:52:50;25.70;90.40
7502;DHT22;3792;47.740;7.606;2022-08-07T10:55:22;25.80;91.30
7502;DHT22;3792;47.740;7.606;2022-08-07T10:58:02;25.80;90.70
7502;DHT22;3792;47.740;7.606;2022-08-07T11:00:44;25.70;90.60
7502;DHT22;3792;47.740;7.606;2022-08-07T11:03:15;25.70;90.60
7502;DHT22;3792;47.740;7.606;2022-08-07T11:05:51;25.90;90.70
7502;DHT22;3792;47.740;7.606;2022-08-07T11:08:28;26.00;90.00
7502;DHT22;3792;47.740;7.606;2022-08-07T11:11:00;26.20;90.30
7502;DHT22;3792;47.740;7.606;2022-08-07T11:13:33;26.30;89.40
7502;DHT22;3792;47.740;7.606;2022-08-07T11:16:09;26.50;90.40
7502;DHT22;3792;47.740;7.606;2022-08-07T11:18:41;26.70;88.60
7502;DHT22;3792;47.740;7.606;2022-08-07T11:21:19;26.90;88.60
7502;DHT22;3792;47.740;7.606;2022-08-07T11:23:53;27.10;88.80
7502;DHT22;3792;47.740;7.606;2022-08-07T11:26:27;27.20;88.10
7502;DHT22;3792;47.740;7.606;2022-08-07T11:29:01;27.40;87.50
7502;DHT22;3792;47.740;7.606;2022-08-07T11:31:38;27.40;86.70
7502;DHT22;3792;47.740;7.606;2022-08-07T11:34:14;27.50;86.20
7502;DHT22;3792;47.740;7.606;2022-08-07T11:36:53;27.60;86.60
7502;DHT22;3792;47.740;7.606;2022-08-07T11:39:38;27.70;86.40
7502;DHT22;3792;47.740;7.606;2022-08-07T11:42:13;27.70;85.00
7502;DHT22;3792;47.740;7.606;2022-08-07T11:44:52;27.70;85.30
7502;DHT22;3792;47.740;7.606;2022-08-07T11:47:40;28.00;85.70
7502;DHT22;3792;47.740;7.606;2022-08-07T11:50:26;28.20;84.30
7502;DHT22;3792;47.740;7.606;2022-08-07T11:53:15;28.20;83.70
7502;DHT22;3792;47.740;7.606;2022-08-07T11:55:57;28.30;82.50
7502;DHT22;3792;47.740;7.606;2022-08-07T11:58:35;28.10;82.70
7502;DHT22;3792;47.740;7.606;2022-08-07T12:01:17;28.10;82.60
7502;DHT22;3792;47.740;7.606;2022-08-07T12:04:08;28.40;81.90
7502;DHT22;3792;47.740;7.606;2022-08-07T12:06:45;28.60;82.60
7502;DHT22;3792;47.740;7.606;2022-08-07T12:09:20;28.90;80.00
7502;DHT22;3792;47.740;7.606;2022-08-07T12:11:54;29.10;80.00
7502;DHT22;3792;47.740;7.606;2022-08-07T12:14:25;29.00;80.60
7502;DHT22;3792;47.740;7.606;2022-08-07T12:16:57;29.20;80.20
7502;DHT22;3792;47.740;7.606;2022-08-07T12:19:44;29.30;79.30
7502;DHT22;3792;47.740;7.606;2022-08-07T12:22:21;29.40;77.80
7502;DHT22;3792;47.740;7.606;2022-08-07T12:24:55;29.40;77.90
7502;DHT22;3792;47.740;7.606;2022-08-07T12:27:47;29.20;79.50
7502;DHT22;3792;47.740;7.606;2022-08-07T12:30:16;29.10;77.60
7502;DHT22;3792;47.740;7.606;2022-08-07T12:32:49;28.80;78.10
7502;DHT22;3792;47.740;7.606;2022-08-07T12:35:20;28.80;79.10
7502;DHT22;3792;47.740;7.606;2022-08-07T12:37:50;29.10;78.50
7502;DHT22;3792;47.740;7.606;2022-08-07T12:40:20;29.20;78.50
7502;DHT22;3792;47.740;7.606;2022-08-07T12:42:51;29.40;76.80
7502;DHT22;3792;47.740;7.606;2022-08-07T12:45:21;29.30;76.60
7502;DHT22;3792;47.740;7.606;2022-08-07T12:47:57;29.30;76.30
7502;DHT22;3792;47.740;7.606;2022-08-07T12:50:33;29.30;76.00
7502;DHT22;3792;47.740;7.606;2022-08-07T12:53:06;29.40;76.40
7502;DHT22;3792;47.740;7.606;2022-08-07T12:55:41;29.50;76.10
7502;DHT22;3792;47.740;7.606;2022-08-07T12:58:12;29.70;75.00
7502;DHT22;3792;47.740;7.606;2022-08-07T13:00:52;29.50;75.30
7502;DHT22;3792;47.740;7.606;2022-08-07T13:03:43;29.60;75.00
7502;DHT22;3792;47.740;7.606;2022-08-07T13:06:25;29.70;75.70
7502;DHT22;3792;47.740;7.606;2022-08-07T13:09:01;29.50;74.20
7502;DHT22;3792;47.740;7.606;2022-08-07T13:11:48;29.80;74.50
7502;DHT22;3792;47.740;7.606;2022-08-07T13:14:27;30.10;74.20
7502;DHT22;3792;47.740;7.606;2022-08-07T13:17:01;30.40;73.90
7502;DHT22;3792;47.740;7.606;2022-08-07T13:19:38;30.70;73.50
7502;DHT22;3792;47.740;7.606;2022-08-07T13:22:13;30.80;72.70
7502;DHT22;3792;47.740;7.606;2022-08-07T13:24:43;31.00;71.60
7502;DHT22;3792;47.740;7.606;2022-08-07T13:27:17;31.40;71.80
7502;DHT22;3792;47.740;7.606;2022-08-07T13:29:51;31.50;69.60
7502;DHT22;3792;47.740;7.606;2022-08-07T13:32:26;31.50;69.70
7502;DHT22;3792;47.740;7.606;2022-08-07T13:34:59;31.40;69.90
7502;DHT22;3792;47.740;7.606;2022-08-07T13:37:35;31.40;69.10
7502;DHT22;3792;47.740;7.606;2022-08-07T13:40:12;30.90;69.30
7502;DHT22;3792;47.740;7.606;2022-08-07T13:42:41;30.70;70.00
7502;DHT22;3792;47.740;7.606;2022-08-07T13:45:10;30.90;69.70
7502;DHT22;3792;47.740;7.606;2022-08-07T13:47:39;31.10;68.40
7502;DHT22;3792;47.740;7.606;2022-08-07T13:50:08;31.50;68.20
7502;DHT22;3792;47.740;7.606;2022-08-07T13:52:42;31.60;68.00
7502;DHT22;3792;47.740;7.606;2022-08-07T13:55:12;31.70;67.10
7502;DHT22;3792;47.740;7.606;2022-08-07T13:57:41;31.20;67.70
7502;DHT22;3792;47.740;7.606;2022-08-07T14:00:10;31.30;68.70
7502;DHT22;3792;47.740;7.606;2022-08-07T14:02:39;31.30;67.70
7502;DHT22;3792;47.740;7.606;2022-08-07T14:05:10;31.20;68.20
7502;DHT22;3792;47.740;7.606;2022-08-07T14:07:42;31.30;69.00
7502;DHT22;3792;47.740;7.606;2022-08-07T14:10:10;31.40;67.30
7502;DHT22;3792;47.740;7.606;2022-08-07T14:12:42;31.70;67.60
7502;DHT22;3792;47.740;7.606;2022-08-07T14:15:19;31.40;66.50
7502;DHT22;3792;47.740;7.606;2022-08-07T14:17:48;31.30;67.40
7502;DHT22;3792;47.740;7.606;2022-08-07T14:20:18;31.50;68.50
7502;DHT22;3792;47.740;7.606;2022-08-07T14:22:52;31.70;66.90
7502;DHT22;3792;47.740;7.606;2022-08-07T14:25:29;31.80;66.30
7502;DHT22;3792;47.740;7.606;2022-08-07T14:28:01;31.70;66.30
7502;DHT22;3792;47.740;7.606;2022-08-07T14:30:30;31.90;66.70
7502;DHT22;3792;47.740;7.606;2022-08-07T14:32:59;32.00;66.00
7502;DHT22;3792;47.740;7.606;2022-08-07T14:35:30;32.00;65.40
7502;DHT22;3792;47.740;7.606;2022-08-07T14:38:00;31.90;65.40
7502;DHT22;3792;47.740;7.606;2022-08-07T14:40:28;31.70;65.70
7502;DHT22;3792;47.740;7.606;2022-08-07T14:42:58;31.60;65.20
7502;DHT22;3792;47.740;7.606;2022-08-07T14:45:28;31.50;65.30
7502;DHT22;3792;47.740;7.606;2022-08-07T14:47:57;31.60;66.10
7502;DHT22;3792;47.740;7.606;2022-08-07T14:50:27;31.80;65.60
7502;DHT22;3792;47.740;7.606;2022-08-07T14:52:55;31.70;64.90
7502;DHT22;3792;47.740;7.606;2022-08-07T14:55:31;31.80;66.20
7502;DHT22;3792;47.740;7.606;2022-08-07T14:57:58;31.80;65.00
7502;DHT22;3792;47.740;7.606;2022-08-07T15:00:31;31.70;64.60
7502;DHT22;3792;47.740;7.606;2022-08-07T15:03:03;31.90;63.50
7502;DHT22;3792;47.740;7.606;2022-08-07T15:05:30;31.70;62.60
7502;DHT22;3792;47.740;7.606;2022-08-07T15:07:58;31.30;64.20
7502;DHT22;3792;47.740;7.606;2022-08-07T15:10:31;31.30;63.80
7502;DHT22;3792;47.740;7.606;2022-08-07T15:13:00;31.00;63.50
7502;DHT22;3792;47.740;7.606;2022-08-07T15:15:32;31.20;64.00
7502;DHT22;3792;47.740;7.606;2022-08-07T15:18:12;31.40;63.30
7502;DHT22;3792;47.740;7.606;2022-08-07T15:20:40;31.30;63.00
7502;DHT22;3792;47.740;7.606;2022-08-07T15:23:14;31.40;62.40
7502;DHT22;3792;47.740;7.606;2022-08-07T15:25:51;31.60;62.10
7502;DHT22;3792;47.740;7.606;2022-08-07T15:28:21;31.80;62.00
7502;DHT22;3792;47.740;7.606;2022-08-07T15:30:49;31.90;60.90
7502;DHT22;3792;47.740;7.606;2022-08-07T15:33:18;32.10;60.10
7502;DHT22;3792;47.740;7.606;2022-08-07T15:35:49;32.00;60.20
7502;DHT22;3792;47.740;7.606;2022-08-07T15:38:18;31.70;59.70
7502;DHT22;3792;47.740;7.606;2022-08-07T15:40:51;31.60;59.70
7502;DHT22;3792;47.740;7.606;2022-08-07T15:43:22;31.50;60.10
7502;DHT22;3792;47.740;7.606;2022-08-07T15:45:51;31.40;59.40
7502;DHT22;3792;47.740;7.606;2022-08-07T15:48:22;31.40;59.70
7502;DHT22;3792;47.740;7.606;2022-08-07T15:50:54;31.50;59.70
7502;DHT22;3792;47.740;7.606;2022-08-07T15:53:27;31.40;58.80
7502;DHT22;3792;47.740;7.606;2022-08-07T15:56:00;31.50;59.00
7502;DHT22;3792;47.740;7.606;2022-08-07T15:58:34;31.50;58.60
7502;DHT22;3792;47.740;7.606;2022-08-07T16:01:05;31.50;59.40
7502;DHT22;3792;47.740;7.606;2022-08-07T16:03:39;31.20;58.90
7502;DHT22;3792;47.740;7.606;2022-08-07T16:06:11;31.20;59.50
7502;DHT22;3792;47.740;7.606;2022-08-07T16:08:40;31.10;59.00
7502;DHT22;3792;47.740;7.606;2022-08-07T16:14:13;31.10;58.30
7502;DHT22;3792;47.740;7.606;2022-08-07T16:16:54;31.00;59.30
7502;DHT22;3792;47.740;7.606;2022-08-07T16:22:36;31.00;58.60
7502;DHT22;3792;47.740;7.606;2022-08-07T16:25:12;30.80;58.90
7502;DHT22;3792;47.740;7.606;2022-08-07T16:27:54;30.60;67.60
7502;DHT22;3792;47.740;7.606;2022-08-07T16:30:27;30.20;71.00
7502;DHT22;3792;47.740;7.606;2022-08-07T16:32:59;30.10;71.50
7502;DHT22;3792;47.740;7.606;2022-08-07T16:35:33;30.00;72.10
7502;DHT22;3792;47.740;7.606;2022-08-07T16:38:29;29.80;72.90
7502;DHT22;3792;47.740;7.606;2022-08-07T16:41:23;29.70;73.60
7502;DHT22;3792;47.740;7.606;2022-08-07T16:44:26;29.80;74.10